EZY56PM EGPF-EGGW
Flight info
| Callsign | EZY56PM |
|---|---|
| Flight time | 0h 50m |
| Altitude | 33000 |
| Route | NORBO T256 ROVLA UT256 DCS UL612 LISTO |
| Aircraft | A320/M-SDE3FGHIRWY/LB1 |
Departure
| Time | 2026-05-07 22:12 |
|---|---|
| Airport | Glasgow Airport (EGPF) |
Arrival
| Time | 2026-05-07 23:02 |
|---|---|
| Airport | London Luton Airport (EGGW) |
| Time | Latitude | Longitude | Altitude | Speed | Heading |
|---|---|---|---|---|---|
| 2026-05-07 21:39 | 55.86537 | -4.43406 | 31 ft | 0 kts | 76° |
| 2026-05-07 22:00 | 55.86533 | -4.43430 | 31 ft | 2 kts | 76° |
| 2026-05-07 22:01 | 55.86529 | -4.43458 | 30 ft | 2 kts | 72° |
| 2026-05-07 22:01 | 55.86522 | -4.43484 | 30 ft | 2 kts | 15° |
| 2026-05-07 22:01 | 55.86506 | -4.43495 | 31 ft | 2 kts | 12° |
| 2026-05-07 22:01 | 55.86490 | -4.43497 | 31 ft | 2 kts | 350° |
| 2026-05-07 22:02 | 55.86485 | -4.43495 | 31 ft | 0 kts | 347° |
| 2026-05-07 22:04 | 55.86500 | -4.43501 | 31 ft | 5 kts | 346° |
| 2026-05-07 22:05 | 55.86559 | -4.43531 | 30 ft | 12 kts | 344° |
| 2026-05-07 22:05 | 55.86660 | -4.43583 | 29 ft | 13 kts | 343° |
| 2026-05-07 22:05 | 55.86721 | -4.43614 | 29 ft | 7 kts | 348° |
| 2026-05-07 22:05 | 55.86754 | -4.43582 | 30 ft | 5 kts | 63° |
| 2026-05-07 22:06 | 55.86770 | -4.43492 | 30 ft | 10 kts | 72° |
| 2026-05-07 22:06 | 55.86792 | -4.43363 | 30 ft | 11 kts | 74° |
| 2026-05-07 22:06 | 55.86813 | -4.43237 | 32 ft | 10 kts | 73° |
| 2026-05-07 22:06 | 55.86832 | -4.43123 | 32 ft | 9 kts | 73° |
| 2026-05-07 22:07 | 55.86854 | -4.42996 | 32 ft | 12 kts | 65° |
| 2026-05-07 22:07 | 55.86921 | -4.42914 | 31 ft | 12 kts | 26° |
| 2026-05-07 22:07 | 55.87002 | -4.42844 | 29 ft | 15 kts | 22° |
| 2026-05-07 22:07 | 55.87108 | -4.42776 | 28 ft | 16 kts | 20° |
| 2026-05-07 22:08 | 55.87220 | -4.42695 | 27 ft | 19 kts | 22° |
| 2026-05-07 22:08 | 55.87349 | -4.42615 | 28 ft | 19 kts | 21° |
| 2026-05-07 22:08 | 55.87450 | -4.42473 | 29 ft | 17 kts | 46° |
| 2026-05-07 22:08 | 55.87531 | -4.42320 | 27 ft | 17 kts | 47° |
| 2026-05-07 22:09 | 55.87612 | -4.42168 | 30 ft | 17 kts | 47° |
| 2026-05-07 22:09 | 55.87695 | -4.42013 | 23 ft | 17 kts | 45° |
| 2026-05-07 22:09 | 55.87774 | -4.41879 | 23 ft | 16 kts | 31° |
| 2026-05-07 22:09 | 55.87877 | -4.41851 | 23 ft | 14 kts | 345° |
| 2026-05-07 22:10 | 55.87935 | -4.41940 | 27 ft | 8 kts | 278° |
| 2026-05-07 22:10 | 55.87908 | -4.41993 | 26 ft | 0 kts | 226° |
| 2026-05-07 22:11 | 55.87789 | -4.42216 | 26 ft | 61 kts | 226° |
| 2026-05-07 22:11 | 55.87341 | -4.43049 | 27 ft | 123 kts | 226° |
| 2026-05-07 22:12 | 55.86645 | -4.44343 | 213 ft | 154 kts | 226° |
| 2026-05-07 22:12 | 55.85934 | -4.45728 | 1016 ft | 151 kts | 224° |
| 2026-05-07 22:12 | 55.85190 | -4.47066 | 1711 ft | 156 kts | 223° |
| 2026-05-07 22:12 | 55.84367 | -4.48519 | 2082 ft | 178 kts | 223° |
| 2026-05-07 22:13 | 55.83424 | -4.50178 | 2470 ft | 203 kts | 224° |
| 2026-05-07 22:13 | 55.82364 | -4.52046 | 2945 ft | 227 kts | 225° |
| 2026-05-07 22:13 | 55.81213 | -4.54079 | 3623 ft | 241 kts | 225° |
| 2026-05-07 22:13 | 55.80020 | -4.56183 | 4628 ft | 242 kts | 224° |
| 2026-05-07 22:14 | 55.78815 | -4.58306 | 5596 ft | 245 kts | 224° |
| 2026-05-07 22:14 | 55.77592 | -4.60456 | 6587 ft | 247 kts | 225° |
| 2026-05-07 22:14 | 55.76364 | -4.62617 | 7492 ft | 251 kts | 224° |
| 2026-05-07 22:14 | 55.75113 | -4.64817 | 8402 ft | 254 kts | 224° |
| 2026-05-07 22:15 | 55.73848 | -4.67042 | 9295 ft | 258 kts | 224° |
| 2026-05-07 22:15 | 55.72556 | -4.69316 | 9859 ft | 264 kts | 224° |
| 2026-05-07 22:15 | 55.71218 | -4.71624 | 10344 ft | 281 kts | 224° |
| 2026-05-07 22:15 | 55.69734 | -4.74014 | 10837 ft | 294 kts | 216° |
| 2026-05-07 22:16 | 55.67851 | -4.75516 | 11556 ft | 303 kts | 194° |
| 2026-05-07 22:16 | 55.65726 | -4.75843 | 12337 ft | 310 kts | 185° |
| 2026-05-07 22:16 | 55.63554 | -4.75987 | 13132 ft | 314 kts | 185° |
| 2026-05-07 22:16 | 55.61346 | -4.75835 | 13879 ft | 322 kts | 175° |
| 2026-05-07 22:17 | 55.59182 | -4.74763 | 14547 ft | 332 kts | 161° |
| 2026-05-07 22:17 | 55.57151 | -4.72708 | 15249 ft | 341 kts | 147° |
| 2026-05-07 22:17 | 55.55296 | -4.70048 | 15945 ft | 345 kts | 145° |
| 2026-05-07 22:17 | 55.53433 | -4.67361 | 16654 ft | 347 kts | 146° |
| 2026-05-07 22:18 | 55.51558 | -4.64671 | 17345 ft | 350 kts | 146° |
| 2026-05-07 22:18 | 55.47737 | -4.59223 | 18654 ft | 356 kts | 146° |
| 2026-05-07 22:18 | 55.45804 | -4.56472 | 19240 ft | 358 kts | 146° |
| 2026-05-07 22:19 | 55.43851 | -4.53699 | 19820 ft | 361 kts | 146° |
| 2026-05-07 22:19 | 55.41901 | -4.50937 | 20347 ft | 365 kts | 146° |
| 2026-05-07 22:19 | 55.39914 | -4.48124 | 20908 ft | 368 kts | 146° |
| 2026-05-07 22:19 | 55.37907 | -4.45258 | 21470 ft | 371 kts | 145° |
| 2026-05-07 22:20 | 55.35937 | -4.42370 | 21994 ft | 374 kts | 144° |
| 2026-05-07 22:20 | 55.33938 | -4.39389 | 22539 ft | 378 kts | 144° |
| 2026-05-07 22:20 | 55.31933 | -4.36378 | 23077 ft | 380 kts | 144° |
| 2026-05-07 22:20 | 55.29903 | -4.33343 | 23600 ft | 383 kts | 144° |
| 2026-05-07 22:21 | 55.27860 | -4.30313 | 24051 ft | 386 kts | 144° |
| 2026-05-07 22:21 | 55.25804 | -4.27277 | 24502 ft | 388 kts | 144° |
| 2026-05-07 22:21 | 55.23749 | -4.24255 | 24956 ft | 390 kts | 144° |
| 2026-05-07 22:21 | 55.21666 | -4.21196 | 25406 ft | 392 kts | 144° |
| 2026-05-07 22:22 | 55.19568 | -4.18121 | 25850 ft | 394 kts | 144° |
| 2026-05-07 22:22 | 55.17462 | -4.15042 | 26266 ft | 396 kts | 144° |
| 2026-05-07 22:22 | 55.15329 | -4.11933 | 26678 ft | 398 kts | 144° |
| 2026-05-07 22:22 | 55.13269 | -4.08652 | 27083 ft | 404 kts | 138° |
| 2026-05-07 22:23 | 55.11350 | -4.05119 | 27483 ft | 406 kts | 138° |
| 2026-05-07 22:23 | 55.09403 | -4.01532 | 27891 ft | 409 kts | 138° |
| 2026-05-07 22:23 | 55.07434 | -3.97906 | 28305 ft | 411 kts | 138° |
| 2026-05-07 22:23 | 55.05460 | -3.94277 | 28697 ft | 413 kts | 138° |
| 2026-05-07 22:24 | 55.03479 | -3.90637 | 29096 ft | 415 kts | 138° |
| 2026-05-07 22:24 | 55.01489 | -3.86991 | 29477 ft | 417 kts | 138° |
| 2026-05-07 22:24 | 54.99555 | -3.83456 | 29842 ft | 419 kts | 138° |
| 2026-05-07 22:24 | 54.97535 | -3.79776 | 30156 ft | 422 kts | 137° |
| 2026-05-07 22:25 | 54.95502 | -3.76075 | 30435 ft | 425 kts | 137° |
| 2026-05-07 22:25 | 54.93457 | -3.72356 | 30713 ft | 427 kts | 137° |
| 2026-05-07 22:25 | 54.91396 | -3.68611 | 30930 ft | 429 kts | 137° |
| 2026-05-07 22:26 | 54.87338 | -3.61245 | 30998 ft | 418 kts | 137° |
| 2026-05-07 22:26 | 54.83204 | -3.53806 | 30997 ft | 433 kts | 137° |
| 2026-05-07 22:27 | 54.79018 | -3.46287 | 31008 ft | 435 kts | 137° |
| 2026-05-07 22:27 | 54.74804 | -3.38732 | 31008 ft | 435 kts | 137° |
| 2026-05-07 22:28 | 54.70069 | -3.32484 | 31000 ft | 425 kts | 158° |
| 2026-05-07 22:28 | 54.64673 | -3.28416 | 31012 ft | 425 kts | 160° |
| 2026-05-07 22:29 | 54.59220 | -3.24333 | 31012 ft | 425 kts | 160° |
| 2026-05-07 22:29 | 54.53822 | -3.20286 | 30991 ft | 425 kts | 160° |
| 2026-05-07 22:30 | 54.48358 | -3.16212 | 30995 ft | 426 kts | 160° |
| 2026-05-07 22:30 | 54.42903 | -3.12155 | 30993 ft | 427 kts | 159° |
| 2026-05-07 22:31 | 54.37472 | -3.08118 | 30998 ft | 428 kts | 160° |
| 2026-05-07 22:31 | 54.31984 | -3.04065 | 31001 ft | 428 kts | 160° |
| 2026-05-07 22:32 | 54.26534 | -3.00061 | 30999 ft | 429 kts | 160° |
| 2026-05-07 22:32 | 54.21037 | -2.96029 | 31016 ft | 428 kts | 160° |
| 2026-05-07 22:33 | 54.15541 | -2.91998 | 31001 ft | 429 kts | 159° |
| 2026-05-07 22:33 | 54.10068 | -2.88003 | 31003 ft | 429 kts | 160° |
| 2026-05-07 22:34 | 54.04590 | -2.84018 | 31010 ft | 430 kts | 160° |
| 2026-05-07 22:34 | 53.99064 | -2.80021 | 31007 ft | 430 kts | 160° |
| 2026-05-07 22:35 | 53.93584 | -2.76063 | 31008 ft | 430 kts | 160° |
| 2026-05-07 22:35 | 53.88061 | -2.72067 | 31017 ft | 430 kts | 160° |
| 2026-05-07 22:36 | 53.82592 | -2.68124 | 31023 ft | 429 kts | 160° |
| 2026-05-07 22:36 | 53.77081 | -2.64166 | 31014 ft | 429 kts | 160° |
| 2026-05-07 22:37 | 53.71552 | -2.60220 | 31020 ft | 429 kts | 160° |
| 2026-05-07 22:37 | 53.66061 | -2.56303 | 31006 ft | 431 kts | 160° |
| 2026-05-07 22:38 | 53.60547 | -2.52377 | 31013 ft | 432 kts | 160° |
| 2026-05-07 22:38 | 53.55016 | -2.48438 | 31015 ft | 432 kts | 160° |
| 2026-05-07 22:39 | 53.49439 | -2.44493 | 31024 ft | 433 kts | 160° |
| 2026-05-07 22:39 | 53.43919 | -2.40596 | 31028 ft | 433 kts | 160° |
| 2026-05-07 22:40 | 53.38355 | -2.36683 | 31035 ft | 433 kts | 160° |
| 2026-05-07 22:40 | 53.32817 | -2.32794 | 31036 ft | 433 kts | 160° |
| 2026-05-07 22:41 | 53.27252 | -2.28893 | 31037 ft | 433 kts | 160° |
| 2026-05-07 22:41 | 53.22588 | -2.25634 | 31030 ft | 433 kts | 160° |
| 2026-05-07 22:42 | 53.17061 | -2.21788 | 31035 ft | 432 kts | 160° |
| 2026-05-07 22:42 | 53.11891 | -2.16650 | 31040 ft | 437 kts | 144° |
| 2026-05-07 22:42 | 53.09510 | -2.13457 | 30502 ft | 442 kts | 143° |
| 2026-05-07 22:43 | 53.07105 | -2.10233 | 29746 ft | 442 kts | 143° |
| 2026-05-07 22:43 | 53.04713 | -2.07030 | 29286 ft | 442 kts | 143° |
| 2026-05-07 22:43 | 53.02319 | -2.03829 | 28798 ft | 442 kts | 144° |
| 2026-05-07 22:43 | 52.99908 | -2.00618 | 28319 ft | 445 kts | 144° |
| 2026-05-07 22:44 | 52.97486 | -1.97405 | 27828 ft | 446 kts | 144° |
| 2026-05-07 22:44 | 52.95090 | -1.94234 | 27331 ft | 447 kts | 144° |
| 2026-05-07 22:44 | 52.92647 | -1.91003 | 26826 ft | 448 kts | 144° |
| 2026-05-07 22:44 | 52.90207 | -1.87774 | 26286 ft | 449 kts | 143° |
| 2026-05-07 22:45 | 52.87758 | -1.84531 | 25757 ft | 450 kts | 143° |
| 2026-05-07 22:45 | 52.85301 | -1.81284 | 25192 ft | 451 kts | 143° |
| 2026-05-07 22:45 | 52.82841 | -1.78041 | 24624 ft | 453 kts | 143° |
| 2026-05-07 22:45 | 52.80396 | -1.74826 | 24047 ft | 454 kts | 143° |
| 2026-05-07 22:46 | 52.77923 | -1.71579 | 23420 ft | 455 kts | 143° |
| 2026-05-07 22:46 | 52.75437 | -1.68321 | 22810 ft | 456 kts | 143° |
| 2026-05-07 22:46 | 52.72949 | -1.65064 | 22210 ft | 457 kts | 143° |
| 2026-05-07 22:46 | 52.70459 | -1.61805 | 21633 ft | 457 kts | 143° |
| 2026-05-07 22:47 | 52.67961 | -1.58542 | 21057 ft | 457 kts | 143° |
| 2026-05-07 22:47 | 52.65500 | -1.55333 | 20765 ft | 441 kts | 143° |
| 2026-05-07 22:47 | 52.63153 | -1.52274 | 20622 ft | 422 kts | 144° |
| 2026-05-07 22:47 | 52.60901 | -1.49338 | 20485 ft | 405 kts | 144° |
| 2026-05-07 22:48 | 52.58733 | -1.46517 | 20356 ft | 389 kts | 144° |
| 2026-05-07 22:48 | 52.56651 | -1.43813 | 20229 ft | 374 kts | 144° |
| 2026-05-07 22:48 | 52.54643 | -1.41212 | 20073 ft | 362 kts | 144° |
| 2026-05-07 22:48 | 52.52708 | -1.38716 | 19740 ft | 356 kts | 144° |
| 2026-05-07 22:49 | 52.50765 | -1.36216 | 19332 ft | 352 kts | 144° |
| 2026-05-07 22:49 | 52.48841 | -1.33740 | 18899 ft | 348 kts | 144° |
| 2026-05-07 22:49 | 52.46953 | -1.31309 | 18145 ft | 343 kts | 144° |
| 2026-05-07 22:49 | 52.45084 | -1.28904 | 17304 ft | 339 kts | 144° |
| 2026-05-07 22:50 | 52.43234 | -1.26525 | 16513 ft | 336 kts | 144° |
| 2026-05-07 22:50 | 52.41408 | -1.24180 | 15789 ft | 332 kts | 144° |
| 2026-05-07 22:50 | 52.39602 | -1.21864 | 15061 ft | 328 kts | 144° |
| 2026-05-07 22:50 | 52.37818 | -1.19574 | 14434 ft | 322 kts | 144° |
| 2026-05-07 22:51 | 52.36111 | -1.17383 | 14045 ft | 310 kts | 144° |
| 2026-05-07 22:51 | 52.34435 | -1.15233 | 13658 ft | 303 kts | 144° |
| 2026-05-07 22:51 | 52.32781 | -1.13115 | 13283 ft | 302 kts | 144° |
| 2026-05-07 22:51 | 52.31127 | -1.11006 | 12924 ft | 300 kts | 144° |
| 2026-05-07 22:52 | 52.29483 | -1.08918 | 12549 ft | 299 kts | 144° |
| 2026-05-07 22:52 | 52.27840 | -1.06832 | 12176 ft | 298 kts | 144° |
| 2026-05-07 22:52 | 52.26201 | -1.04751 | 11819 ft | 297 kts | 144° |
| 2026-05-07 22:52 | 52.24570 | -1.02678 | 11440 ft | 296 kts | 144° |
| 2026-05-07 22:53 | 52.22963 | -1.00635 | 11063 ft | 296 kts | 144° |
| 2026-05-07 22:53 | 52.21340 | -0.98575 | 10675 ft | 295 kts | 144° |
| 2026-05-07 22:53 | 52.19714 | -0.96512 | 10286 ft | 295 kts | 144° |
| 2026-05-07 22:53 | 52.18095 | -0.94458 | 9923 ft | 293 kts | 144° |
| 2026-05-07 22:54 | 52.16492 | -0.92428 | 9528 ft | 291 kts | 143° |
| 2026-05-07 22:54 | 52.14920 | -0.90437 | 9126 ft | 289 kts | 143° |
| 2026-05-07 22:54 | 52.13339 | -0.88436 | 8719 ft | 288 kts | 143° |
| 2026-05-07 22:54 | 52.11762 | -0.86447 | 8350 ft | 284 kts | 143° |
| 2026-05-07 22:55 | 52.10202 | -0.84482 | 7983 ft | 281 kts | 143° |
| 2026-05-07 22:55 | 52.08651 | -0.82529 | 7591 ft | 280 kts | 143° |
| 2026-05-07 22:55 | 52.07138 | -0.80624 | 7069 ft | 276 kts | 143° |
| 2026-05-07 22:55 | 52.05642 | -0.78744 | 6613 ft | 268 kts | 143° |
| 2026-05-07 22:56 | 52.04164 | -0.76885 | 6184 ft | 268 kts | 142° |
| 2026-05-07 22:56 | 52.02693 | -0.75035 | 5734 ft | 268 kts | 142° |
| 2026-05-07 22:56 | 52.01217 | -0.73183 | 5297 ft | 267 kts | 142° |
| 2026-05-07 22:56 | 51.99753 | -0.71350 | 4908 ft | 264 kts | 143° |
| 2026-05-07 22:57 | 51.98305 | -0.69541 | 4471 ft | 262 kts | 143° |
| 2026-05-07 22:57 | 51.96859 | -0.67729 | 4057 ft | 261 kts | 143° |
| 2026-05-07 22:57 | 51.95427 | -0.65936 | 3621 ft | 259 kts | 143° |
| 2026-05-07 22:57 | 51.94003 | -0.64153 | 3155 ft | 260 kts | 143° |
| 2026-05-07 22:58 | 51.92597 | -0.62395 | 2965 ft | 249 kts | 143° |
| 2026-05-07 22:58 | 51.91275 | -0.60747 | 2839 ft | 236 kts | 144° |
| 2026-05-07 22:58 | 51.90000 | -0.59160 | 2705 ft | 225 kts | 144° |
| 2026-05-07 22:58 | 51.88785 | -0.57650 | 2571 ft | 214 kts | 144° |
| 2026-05-07 22:59 | 51.87628 | -0.56210 | 2445 ft | 206 kts | 144° |
| 2026-05-07 22:59 | 51.86515 | -0.54824 | 2314 ft | 197 kts | 144° |
| 2026-05-07 22:59 | 51.85507 | -0.53409 | 2182 ft | 193 kts | 128° |
| 2026-05-07 22:59 | 51.85049 | -0.51451 | 2115 ft | 183 kts | 95° |
| 2026-05-07 23:00 | 51.85261 | -0.49464 | 1943 ft | 177 kts | 77° |
| 2026-05-07 23:00 | 51.85599 | -0.47563 | 1740 ft | 172 kts | 78° |
| 2026-05-07 23:00 | 51.85916 | -0.45763 | 1516 ft | 160 kts | 77° |
| 2026-05-07 23:00 | 51.86211 | -0.44071 | 1297 ft | 152 kts | 77° |
| 2026-05-07 23:01 | 51.86490 | -0.42464 | 1089 ft | 145 kts | 76° |
| 2026-05-07 23:01 | 51.86756 | -0.40934 | 899 ft | 140 kts | 77° |
| 2026-05-07 23:01 | 51.87018 | -0.39423 | 681 ft | 140 kts | 75° |
| 2026-05-07 23:01 | 51.87274 | -0.37922 | 528 ft | 132 kts | 75° |
| 2026-05-07 23:02 | 51.87462 | -0.36852 | 523 ft | 56 kts | 74° |
| 2026-05-07 23:02 | 51.87525 | -0.36479 | 523 ft | 32 kts | 75° |
| 2026-05-07 23:02 | 51.87584 | -0.36128 | 517 ft | 33 kts | 75° |
| 2026-05-07 23:02 | 51.87669 | -0.35924 | 516 ft | 18 kts | 357° |
| 2026-05-07 23:03 | 51.87764 | -0.35984 | 516 ft | 12 kts | 315° |
| 2026-05-07 23:03 | 51.87780 | -0.36085 | 518 ft | 8 kts | 262° |
| 2026-05-07 23:03 | 51.87761 | -0.36207 | 518 ft | 18 kts | 256° |
| 2026-05-07 23:03 | 51.87722 | -0.36438 | 519 ft | 22 kts | 253° |
| 2026-05-07 23:04 | 51.87681 | -0.36672 | 522 ft | 22 kts | 255° |
| 2026-05-07 23:04 | 51.87642 | -0.36897 | 526 ft | 20 kts | 255° |
| 2026-05-07 23:04 | 51.87603 | -0.37128 | 522 ft | 22 kts | 254° |
| 2026-05-07 23:04 | 51.87583 | -0.37372 | 522 ft | 22 kts | 288° |
| 2026-05-07 23:05 | 51.87693 | -0.37546 | 520 ft | 23 kts | 303° |
| 2026-05-07 23:05 | 51.87759 | -0.37776 | 523 ft | 19 kts | 294° |
| 2026-05-07 23:05 | 51.87801 | -0.37799 | 523 ft | 7 kts | 22° |
| 2026-05-07 23:05 | 51.87826 | -0.37781 | 523 ft | 0 kts | 24° |